createdAt,value
2017-11-04T00:00:20.742Z,6.97
2017-11-04T00:01:20.844Z,7.04
2017-11-04T00:02:20.707Z,7.01
2017-11-04T00:03:20.703Z,7.04
2017-11-04T00:04:20.692Z,7.00
2017-11-04T00:05:20.682Z,7.03
2017-11-04T00:06:20.667Z,7.07
2017-11-04T00:07:20.672Z,6.97
2017-11-04T00:08:20.655Z,7.06
2017-11-04T00:09:20.644Z,7.06
2017-11-04T00:10:20.633Z,7.00
2017-11-04T00:11:20.618Z,7.01
2017-11-04T00:12:20.606Z,7.03
2017-11-04T00:13:20.617Z,7.06
2017-11-04T00:14:21.524Z,7.07
2017-11-04T00:15:20.576Z,7.08
2017-11-04T00:16:20.600Z,7.08
2017-11-04T00:17:20.548Z,7.10
2017-11-04T00:18:20.551Z,7.11
2017-11-04T00:19:21.526Z,7.00
2017-11-04T00:20:20.521Z,7.07
2017-11-04T00:21:20.516Z,7.01
2017-11-04T00:22:20.506Z,7.06
2017-11-04T00:23:20.490Z,7.07
2017-11-04T00:24:20.487Z,7.04
2017-11-04T00:25:20.476Z,7.01
2017-11-04T00:26:21.031Z,7.06
2017-11-04T00:27:20.458Z,7.03
2017-11-04T00:28:20.444Z,7.13
2017-11-04T00:29:20.435Z,7.07
2017-11-04T00:30:20.422Z,7.00
2017-11-04T00:31:20.409Z,7.08
2017-11-04T00:32:21.033Z,7.07
2017-11-04T00:33:20.399Z,7.15
2017-11-04T00:34:20.375Z,7.07
2017-11-04T00:35:20.355Z,7.15
2017-11-04T00:36:20.356Z,7.13
2017-11-04T00:37:20.345Z,7.07
2017-11-04T00:38:20.338Z,7.10
2017-11-04T00:39:20.326Z,7.15
2017-11-04T00:40:21.043Z,7.11
2017-11-04T00:41:20.306Z,7.11
2017-11-04T00:42:20.290Z,7.11
2017-11-04T00:43:20.285Z,7.11
2017-11-04T00:44:20.274Z,7.10
2017-11-04T00:45:20.268Z,7.08
2017-11-04T00:46:20.252Z,7.16
2017-11-04T00:47:20.239Z,7.16
2017-11-04T00:48:20.233Z,7.16
2017-11-04T00:49:21.034Z,7.11
2017-11-04T00:50:20.208Z,7.16
2017-11-04T00:51:20.197Z,7.10
2017-11-04T00:52:20.186Z,7.10
2017-11-04T00:53:20.174Z,7.07
2017-11-04T00:54:20.166Z,7.04
2017-11-04T00:55:20.158Z,7.11
2017-11-04T00:56:20.149Z,7.10
2017-11-04T00:57:20.144Z,7.01
2017-11-04T00:58:20.127Z,7.04
2017-11-04T00:59:20.118Z,7.00
2017-11-04T01:00:20.102Z,7.10
2017-11-04T01:01:20.093Z,7.04
2017-11-04T01:02:20.082Z,7.07
2017-11-04T01:03:20.073Z,7.03
2017-11-04T01:04:20.060Z,7.10
2017-11-04T01:05:20.049Z,6.99
2017-11-04T01:06:20.050Z,6.99
2017-11-04T01:07:20.036Z,7.07
2017-11-04T01:08:20.551Z,7.10
2017-11-04T01:09:20.010Z,7.01
2017-11-04T01:10:20.008Z,7.08
2017-11-04T01:11:19.989Z,7.08
2017-11-04T01:12:19.973Z,6.99
2017-11-04T01:13:19.991Z,7.06
2017-11-04T01:14:19.961Z,7.08
2017-11-04T01:15:19.946Z,7.07
2017-11-04T01:16:19.933Z,7.08
2017-11-04T01:17:19.924Z,7.01
2017-11-04T01:18:19.907Z,7.07
2017-11-04T01:19:19.906Z,6.97
2017-11-04T01:20:19.896Z,7.13
2017-11-04T01:21:19.884Z,7.10
2017-11-04T01:22:19.875Z,7.10
2017-11-04T01:23:19.864Z,7.15
2017-11-04T01:24:19.856Z,7.08
2017-11-04T01:25:19.844Z,7.16
2017-11-04T01:26:19.827Z,7.15
2017-11-04T01:27:19.820Z,7.25
2017-11-04T01:28:19.809Z,7.19
2017-11-04T01:29:19.790Z,7.06
2017-11-04T01:30:19.784Z,7.11
2017-11-04T01:31:19.777Z,7.08
2017-11-04T01:32:19.763Z,7.15
2017-11-04T01:33:19.760Z,7.16
2017-11-04T01:34:19.750Z,7.08
2017-11-04T01:35:19.735Z,7.06
2017-11-04T01:36:19.725Z,7.18
2017-11-04T01:37:19.714Z,7.11
2017-11-04T01:38:19.703Z,7.13
2017-11-04T01:39:19.696Z,7.11
2017-11-04T01:40:19.683Z,7.08
2017-11-04T01:41:19.674Z,7.25
2017-11-04T01:42:19.668Z,7.08
2017-11-04T01:43:19.647Z,7.13
2017-11-04T01:44:19.636Z,7.13
2017-11-04T01:45:19.631Z,7.10
2017-11-04T01:46:19.620Z,7.06
2017-11-04T01:47:19.607Z,7.00
2017-11-04T01:48:19.593Z,7.03
2017-11-04T01:49:19.586Z,7.04
2017-11-04T01:50:20.559Z,7.01
2017-11-04T01:51:19.566Z,7.04
2017-11-04T01:52:19.560Z,7.07
2017-11-04T01:53:19.550Z,6.93
2017-11-04T01:54:19.530Z,6.99
2017-11-04T01:55:19.526Z,7.07
2017-11-04T01:56:19.513Z,7.01
2017-11-04T01:57:19.505Z,7.00
2017-11-04T01:58:19.489Z,7.07
2017-11-04T01:59:19.480Z,6.97
2017-11-04T02:00:19.469Z,7.04
2017-11-04T02:01:19.457Z,7.07
2017-11-04T02:02:19.447Z,7.08
2017-11-04T02:03:19.438Z,7.01
2017-11-04T02:04:19.426Z,7.06
2017-11-04T02:05:19.419Z,7.06
2017-11-04T02:06:19.409Z,7.04
2017-11-04T02:07:19.397Z,7.03
2017-11-04T02:08:20.065Z,7.01
2017-11-04T02:09:19.379Z,7.07
2017-11-04T02:10:19.365Z,7.10
2017-11-04T02:11:19.361Z,7.04
2017-11-04T02:12:19.346Z,7.00
2017-11-04T02:13:20.065Z,7.04
2017-11-04T02:14:19.320Z,7.01
2017-11-04T02:15:19.312Z,7.10
2017-11-04T02:16:19.298Z,7.06
2017-11-04T02:17:19.291Z,7.00
2017-11-04T02:18:19.277Z,7.11
2017-11-04T02:19:19.266Z,7.13
2017-11-04T02:20:20.066Z,7.11
2017-11-04T02:21:19.247Z,7.07
2017-11-04T02:22:19.239Z,7.15
2017-11-04T02:23:19.231Z,7.15
2017-11-04T02:24:19.221Z,7.13
2017-11-04T02:25:19.207Z,7.08
2017-11-04T02:26:19.195Z,7.11
2017-11-04T02:27:19.188Z,7.07
2017-11-04T02:28:19.176Z,7.08
2017-11-04T02:29:19.166Z,7.11
2017-11-04T02:30:19.153Z,7.06
2017-11-04T02:31:19.140Z,7.15
2017-11-04T02:32:19.131Z,7.08
2017-11-04T02:33:19.133Z,7.13
2017-11-04T02:34:19.109Z,7.08
2017-11-04T02:35:19.100Z,7.15
2017-11-04T02:36:19.089Z,7.13
2017-11-04T02:37:19.077Z,7.15
2017-11-04T02:38:19.575Z,7.15
2017-11-04T02:39:19.058Z,7.15
2017-11-04T02:40:19.052Z,7.13
2017-11-04T02:41:19.047Z,7.13
2017-11-04T02:42:19.027Z,7.08
2017-11-04T02:43:19.016Z,7.08
2017-11-04T02:44:19.004Z,7.08
2017-11-04T02:45:18.996Z,7.06
2017-11-04T02:46:18.985Z,7.04
2017-11-04T02:47:18.974Z,7.11
2017-11-04T02:48:18.960Z,7.13
2017-11-04T02:49:18.948Z,7.01
2017-11-04T02:50:18.938Z,7.03
2017-11-04T02:51:18.927Z,7.08
2017-11-04T02:52:18.920Z,7.04
2017-11-04T02:53:18.908Z,7.03
2017-11-04T02:54:18.900Z,7.06
2017-11-04T02:55:18.890Z,7.06
2017-11-04T02:56:18.878Z,7.08
2017-11-04T02:57:18.867Z,7.08
2017-11-04T02:58:18.859Z,7.04
2017-11-04T02:59:18.846Z,7.10
2017-11-04T03:00:18.835Z,7.16
2017-11-04T03:01:18.824Z,7.22
2017-11-04T03:02:18.811Z,7.13
2017-11-04T03:03:18.804Z,7.19
2017-11-04T03:04:18.791Z,7.28
2017-11-04T03:05:18.779Z,7.28
2017-11-04T03:06:18.780Z,7.39
2017-11-04T03:07:18.757Z,7.40
2017-11-04T03:08:18.747Z,7.36
2017-11-04T03:09:18.742Z,7.46
2017-11-04T03:10:18.730Z,7.43
2017-11-04T03:11:18.736Z,7.52
2017-11-04T03:12:18.708Z,7.57
2017-11-04T03:13:18.698Z,7.52
2017-11-04T03:14:18.685Z,7.55
2017-11-04T03:15:18.680Z,7.64
2017-11-04T03:16:19.588Z,7.68
2017-11-04T03:17:18.655Z,7.69
2017-11-04T03:18:18.649Z,7.73
2017-11-04T03:19:18.631Z,7.71
2017-11-04T03:20:18.629Z,7.76
2017-11-04T03:21:18.615Z,7.77
2017-11-04T03:22:18.609Z,7.81
2017-11-04T03:23:18.598Z,7.80
2017-11-04T03:24:18.587Z,7.88
2017-11-04T03:25:18.579Z,7.88
2017-11-04T03:26:18.562Z,7.86
2017-11-04T03:27:18.554Z,7.95
2017-11-04T03:28:18.554Z,7.99
2017-11-04T03:29:18.532Z,8.06
2017-11-04T03:30:18.522Z,8.09
2017-11-04T03:31:18.515Z,8.06
2017-11-04T03:32:19.105Z,8.09
2017-11-04T03:33:18.492Z,8.12
2017-11-04T03:34:18.492Z,8.12
2017-11-04T03:35:18.476Z,8.12
2017-11-04T03:36:18.474Z,8.19
2017-11-04T03:37:18.456Z,8.13
2017-11-04T03:38:18.453Z,8.14
2017-11-04T03:39:18.436Z,8.21
2017-11-04T03:40:18.429Z,8.26
2017-11-04T03:41:18.417Z,8.23
2017-11-04T03:42:18.402Z,8.24
2017-11-04T03:43:18.392Z,8.28
2017-11-04T03:44:18.384Z,8.24
2017-11-04T03:45:18.377Z,8.39
2017-11-04T03:46:19.096Z,8.38
2017-11-04T03:47:18.357Z,8.44
2017-11-04T03:48:18.354Z,8.44
2017-11-04T03:49:18.338Z,8.35
2017-11-04T03:50:18.332Z,8.35
2017-11-04T03:51:18.318Z,8.46
2017-11-04T03:52:18.314Z,8.42
2017-11-04T03:53:18.300Z,8.39
2017-11-04T03:54:18.290Z,8.39
2017-11-04T03:55:18.279Z,8.50
2017-11-04T03:56:18.270Z,8.44
2017-11-04T03:57:18.264Z,8.49
2017-11-04T03:58:18.249Z,8.56
2017-11-04T03:59:18.238Z,8.53
2017-11-04T04:00:18.239Z,8.52
2017-11-04T04:01:18.235Z,8.52
2017-11-04T04:02:18.214Z,8.62
2017-11-04T04:03:18.204Z,8.57
2017-11-04T04:04:18.192Z,8.56
2017-11-04T04:05:18.184Z,8.57
2017-11-04T04:06:18.174Z,8.55
2017-11-04T04:07:18.168Z,8.65
2017-11-04T04:08:18.160Z,8.59
2017-11-04T04:09:18.149Z,8.71
2017-11-04T04:10:18.140Z,8.62
2017-11-04T04:11:18.129Z,8.65
2017-11-04T04:12:18.121Z,8.74
2017-11-04T04:13:19.107Z,8.71
2017-11-04T04:14:18.104Z,8.71
2017-11-04T04:15:18.094Z,8.70
2017-11-04T04:16:18.084Z,8.74
2017-11-04T04:17:18.073Z,8.68
2017-11-04T04:18:18.063Z,8.77
2017-11-04T04:19:18.056Z,8.77
2017-11-04T04:20:18.055Z,8.81
2017-11-04T04:21:18.041Z,8.78
2017-11-04T04:22:18.025Z,8.85
2017-11-04T04:23:18.021Z,8.83
2017-11-04T04:24:18.005Z,8.86
2017-11-04T04:25:18.000Z,8.86
2017-11-04T04:26:18.608Z,8.85
2017-11-04T04:27:17.978Z,8.85
2017-11-04T04:28:17.969Z,8.86
2017-11-04T04:29:17.961Z,8.83
2017-11-04T04:30:17.963Z,8.93
2017-11-04T04:31:17.947Z,8.90
2017-11-04T04:32:17.937Z,8.95
2017-11-04T04:33:17.927Z,8.96
2017-11-04T04:34:17.917Z,8.96
2017-11-04T04:35:17.913Z,9.03
2017-11-04T04:36:17.900Z,9.04
2017-11-04T04:37:17.891Z,9.01
2017-11-04T04:38:17.878Z,8.99
2017-11-04T04:39:17.859Z,8.96
2017-11-04T04:40:17.853Z,8.95
2017-11-04T04:41:17.868Z,8.98
2017-11-04T04:42:17.846Z,8.98
2017-11-04T04:43:17.849Z,9.06
2017-11-04T04:44:17.823Z,9.03
2017-11-04T04:45:17.814Z,8.99
2017-11-04T04:46:17.827Z,9.04
2017-11-04T04:47:17.799Z,9.08
2017-11-04T04:48:17.791Z,9.11
2017-11-04T04:49:17.781Z,9.11
2017-11-04T04:50:17.781Z,9.01
2017-11-04T04:51:17.758Z,9.14
2017-11-04T04:52:17.756Z,9.03
2017-11-04T04:53:17.746Z,9.03
2017-11-04T04:54:17.731Z,9.03
2017-11-04T04:55:17.727Z,9.01
2017-11-04T04:56:17.714Z,9.03
2017-11-04T04:57:17.707Z,9.01
2017-11-04T04:58:17.692Z,9.09
2017-11-04T04:59:18.620Z,9.04
2017-11-04T05:00:17.690Z,9.04
2017-11-04T05:01:17.671Z,9.03
2017-11-04T05:02:17.662Z,8.98
2017-11-04T05:03:17.656Z,9.04
2017-11-04T05:04:17.639Z,9.01
2017-11-04T05:05:17.634Z,8.99
2017-11-04T05:06:17.627Z,9.06
2017-11-04T05:07:17.618Z,9.09
2017-11-04T05:08:17.609Z,9.12
2017-11-04T05:09:17.600Z,9.12
2017-11-04T05:10:17.587Z,9.04
2017-11-04T05:11:17.571Z,9.11
2017-11-04T05:12:17.571Z,9.09
2017-11-04T05:13:17.564Z,9.12
2017-11-04T05:14:17.551Z,9.08
2017-11-04T05:15:17.545Z,9.09
2017-11-04T05:16:17.532Z,9.19
2017-11-04T05:17:17.525Z,9.09
2017-11-04T05:18:17.523Z,9.11
2017-11-04T05:19:17.511Z,9.09
2017-11-04T05:20:17.505Z,8.99
2017-11-04T05:21:17.493Z,9.03
2017-11-04T05:22:17.491Z,9.08
2017-11-04T05:23:17.472Z,9.16
2017-11-04T05:24:17.467Z,9.11
2017-11-04T05:25:17.451Z,9.12
2017-11-04T05:26:17.445Z,9.15
2017-11-04T05:27:17.439Z,9.09
2017-11-04T05:28:17.428Z,9.15
2017-11-04T05:29:17.418Z,9.12
2017-11-04T05:30:17.404Z,9.16
2017-11-04T05:31:17.395Z,9.15
2017-11-04T05:32:17.389Z,9.14
2017-11-04T05:33:17.384Z,9.08
2017-11-04T05:34:17.369Z,9.15
2017-11-04T05:35:17.363Z,9.14
2017-11-04T05:36:17.353Z,9.08
2017-11-04T05:37:17.342Z,9.16
2017-11-04T05:38:17.332Z,9.06
2017-11-04T05:39:17.323Z,9.08
2017-11-04T05:40:17.309Z,9.19
2017-11-04T05:41:18.135Z,9.12
2017-11-04T05:42:17.300Z,9.18
2017-11-04T05:43:17.292Z,9.15
2017-11-04T05:44:17.283Z,9.22
2017-11-04T05:45:17.273Z,9.11
2017-11-04T05:46:17.260Z,9.12
2017-11-04T05:47:17.261Z,9.09
2017-11-04T05:48:17.248Z,9.11
2017-11-04T05:49:17.240Z,9.04
2017-11-04T05:50:17.227Z,8.93
2017-11-04T05:51:18.137Z,8.98
2017-11-04T05:52:17.206Z,9.01
2017-11-04T05:53:17.196Z,8.98
2017-11-04T05:54:17.189Z,8.96
2017-11-04T05:55:17.178Z,8.98
2017-11-04T05:56:17.172Z,8.95
2017-11-04T05:57:17.167Z,8.83
2017-11-04T05:58:17.154Z,9.03
2017-11-04T05:59:17.137Z,8.95
2017-11-04T06:00:17.138Z,8.98
2017-11-04T06:01:17.131Z,8.92
2017-11-04T06:02:17.119Z,8.93
2017-11-04T06:03:17.109Z,8.93
2017-11-04T06:04:17.099Z,8.96
2017-11-04T06:05:17.086Z,9.01
2017-11-04T06:06:17.077Z,9.04
2017-11-04T06:07:17.068Z,8.98
2017-11-04T06:08:17.059Z,9.04
2017-11-04T06:09:17.050Z,8.96
2017-11-04T06:10:17.042Z,8.98
2017-11-04T06:11:17.030Z,8.96
2017-11-04T06:12:17.020Z,8.96
2017-11-04T06:13:17.014Z,8.99
2017-11-04T06:14:17.005Z,8.95
2017-11-04T06:15:16.996Z,9.03
2017-11-04T06:16:16.987Z,8.93
2017-11-04T06:17:16.984Z,8.96
2017-11-04T06:18:16.962Z,8.98
2017-11-04T06:19:16.955Z,8.92
2017-11-04T06:20:16.983Z,9.01
2017-11-04T06:21:16.937Z,8.99
2017-11-04T06:22:16.921Z,8.96
2017-11-04T06:23:16.920Z,8.96
2017-11-04T06:24:16.910Z,8.98
2017-11-04T06:25:16.900Z,9.03
2017-11-04T06:26:17.659Z,8.95
2017-11-04T06:27:16.883Z,8.98
2017-11-04T06:28:16.877Z,9.03
2017-11-04T06:29:16.865Z,8.96
2017-11-04T06:30:16.852Z,8.93
2017-11-04T06:31:16.842Z,9.06
2017-11-04T06:32:16.838Z,8.98
2017-11-04T06:33:16.843Z,8.95
2017-11-04T06:34:16.818Z,8.99
2017-11-04T06:35:16.808Z,8.99
2017-11-04T06:36:16.798Z,8.93
2017-11-04T06:37:16.787Z,9.01
2017-11-04T06:38:17.656Z,8.98
2017-11-04T06:39:16.773Z,9.04
2017-11-04T06:40:16.765Z,8.98
2017-11-04T06:41:16.758Z,8.98
2017-11-04T06:42:16.745Z,9.04
2017-11-04T06:43:16.735Z,9.03
2017-11-04T06:44:16.729Z,8.90
2017-11-04T06:45:16.727Z,8.99
2017-11-04T06:46:16.702Z,9.04
2017-11-04T06:47:16.692Z,9.04
2017-11-04T06:48:16.695Z,9.04
2017-11-04T06:49:16.683Z,9.01
2017-11-04T06:50:16.658Z,9.08
2017-11-04T06:51:17.162Z,9.08
2017-11-04T06:52:16.641Z,9.06
2017-11-04T06:53:16.647Z,9.12
2017-11-04T06:54:16.629Z,9.09
2017-11-04T06:55:16.624Z,9.15
2017-11-04T06:56:16.600Z,9.12
2017-11-04T06:57:17.169Z,9.08
2017-11-04T06:58:16.594Z,9.09
2017-11-04T06:59:16.581Z,9.15
2017-11-04T07:00:16.580Z,9.09
2017-11-04T07:01:16.565Z,9.18
2017-11-04T07:02:16.551Z,9.01
2017-11-04T07:03:16.542Z,9.08
2017-11-04T07:04:16.532Z,9.15
2017-11-04T07:05:16.523Z,9.08
2017-11-04T07:06:16.521Z,9.08
2017-11-04T07:07:16.505Z,9.08
2017-11-04T07:08:16.494Z,9.15
2017-11-04T07:09:16.489Z,9.11
2017-11-04T07:10:16.479Z,9.16
2017-11-04T07:11:16.468Z,9.06
2017-11-04T07:12:16.456Z,9.14
2017-11-04T07:13:16.465Z,9.15
2017-11-04T07:14:16.449Z,9.08
2017-11-04T07:15:16.434Z,9.15
2017-11-04T07:16:16.430Z,9.12
2017-11-04T07:17:16.413Z,9.14
2017-11-04T07:18:16.400Z,9.19
2017-11-04T07:19:16.398Z,9.14
2017-11-04T07:20:16.386Z,9.12
2017-11-04T07:21:16.376Z,9.16
2017-11-04T07:22:16.391Z,9.27
2017-11-04T07:23:16.373Z,9.29
2017-11-04T07:24:16.520Z,9.29
2017-11-04T07:25:16.340Z,9.19
2017-11-04T07:26:16.356Z,9.26
2017-11-04T07:27:16.330Z,9.24
2017-11-04T07:28:16.324Z,9.30
2017-11-04T07:29:16.304Z,9.27
2017-11-04T07:30:16.311Z,9.27
2017-11-04T07:31:16.287Z,9.29
2017-11-04T07:32:16.277Z,9.36
2017-11-04T07:33:16.263Z,9.27
2017-11-04T07:34:16.253Z,9.36
2017-11-04T07:35:16.249Z,9.32
2017-11-04T07:36:16.247Z,9.42
2017-11-04T07:37:16.252Z,9.48
2017-11-04T07:38:16.218Z,9.42
2017-11-04T07:39:16.204Z,9.33
2017-11-04T07:40:16.199Z,9.36
2017-11-04T07:41:16.198Z,9.42
2017-11-04T07:42:16.172Z,9.37
2017-11-04T07:43:16.168Z,9.42
2017-11-04T07:44:16.170Z,9.42
2017-11-04T07:45:16.167Z,9.37
2017-11-04T07:46:16.153Z,9.37
2017-11-04T07:47:16.137Z,9.45
2017-11-04T07:48:16.128Z,9.41
2017-11-04T07:49:16.121Z,9.41
2017-11-04T07:50:16.116Z,9.40
2017-11-04T07:51:16.107Z,9.52
2017-11-04T07:52:16.105Z,9.51
2017-11-04T07:53:16.088Z,9.59
2017-11-04T07:54:16.073Z,9.52
2017-11-04T07:55:16.070Z,9.50
2017-11-04T07:56:16.065Z,9.65
2017-11-04T07:57:16.055Z,9.57
2017-11-04T07:58:16.043Z,9.57
2017-11-04T07:59:16.031Z,9.66
2017-11-04T08:00:16.018Z,9.69
2017-11-04T08:01:16.023Z,9.69
2017-11-04T08:02:16.004Z,9.62
2017-11-04T08:03:16.002Z,9.75
2017-11-04T08:04:15.987Z,9.66
2017-11-04T08:05:15.988Z,9.69
2017-11-04T08:06:15.970Z,9.75
2017-11-04T08:07:15.966Z,9.77
2017-11-04T08:08:15.960Z,9.72
2017-11-04T08:09:15.948Z,9.77
2017-11-04T08:10:15.944Z,9.83
2017-11-04T08:11:15.930Z,9.87
2017-11-04T08:12:15.927Z,9.83
2017-11-04T08:13:15.916Z,9.88
2017-11-04T08:14:15.904Z,9.81
2017-11-04T08:15:15.893Z,9.85
2017-11-04T08:16:16.712Z,9.83
2017-11-04T08:17:15.872Z,9.90
2017-11-04T08:18:15.868Z,9.84
2017-11-04T08:19:15.857Z,9.84
2017-11-04T08:20:15.856Z,9.94
2017-11-04T08:21:15.843Z,10.02
2017-11-04T08:22:15.836Z,10.03
2017-11-04T08:23:15.828Z,9.99
2017-11-04T08:24:15.827Z,10.03
2017-11-04T08:25:15.810Z,10.05
2017-11-04T08:26:15.802Z,10.06
2017-11-04T08:27:15.791Z,10.08
2017-11-04T08:28:15.795Z,10.06
2017-11-04T08:29:15.778Z,10.14
2017-11-04T08:30:15.763Z,10.20
2017-11-04T08:31:16.710Z,10.21
2017-11-04T08:32:15.742Z,10.09
2017-11-04T08:33:15.741Z,10.14
2017-11-04T08:34:15.732Z,10.16
2017-11-04T08:35:15.728Z,10.08
2017-11-04T08:36:15.719Z,10.16
2017-11-04T08:37:16.704Z,10.17
2017-11-04T08:38:15.698Z,10.27
2017-11-04T08:39:15.690Z,10.24
2017-11-04T08:40:15.680Z,10.24
2017-11-04T08:41:15.670Z,10.21
2017-11-04T08:42:15.662Z,10.26
2017-11-04T08:43:15.670Z,10.30
2017-11-04T08:44:16.201Z,10.23
2017-11-04T08:45:15.638Z,10.27
2017-11-04T08:46:15.628Z,10.28
2017-11-04T08:47:16.248Z,10.36
2017-11-04T08:48:15.614Z,10.28
2017-11-04T08:49:15.608Z,10.42
2017-11-04T08:50:15.602Z,10.35
2017-11-04T08:51:15.591Z,10.43
2017-11-04T08:52:15.585Z,10.41
2017-11-04T08:53:15.577Z,10.41
2017-11-04T08:54:15.558Z,10.45
2017-11-04T08:55:15.557Z,10.54
2017-11-04T08:56:15.544Z,10.52
2017-11-04T08:57:15.542Z,10.48
2017-11-04T08:58:15.537Z,10.48
2017-11-04T08:59:15.525Z,10.62
2017-11-04T09:00:15.519Z,10.48
2017-11-04T09:01:15.502Z,10.55
2017-11-04T09:02:15.491Z,10.54
2017-11-04T09:03:15.492Z,10.54
2017-11-04T09:04:15.484Z,10.57
2017-11-04T09:05:15.476Z,10.49
2017-11-04T09:06:16.216Z,10.54
2017-11-04T09:07:15.459Z,10.54
2017-11-04T09:08:15.454Z,10.46
2017-11-04T09:09:15.447Z,10.58
2017-11-04T09:10:15.435Z,10.55
2017-11-04T09:11:15.423Z,10.58
2017-11-04T09:12:15.428Z,10.60
2017-11-04T09:13:15.408Z,10.62
2017-11-04T09:14:15.398Z,10.60
2017-11-04T09:15:15.388Z,10.72
2017-11-04T09:16:15.387Z,10.61
2017-11-04T09:17:15.380Z,10.65
2017-11-04T09:18:15.370Z,10.70
2017-11-04T09:19:15.376Z,10.62
2017-11-04T09:20:15.357Z,10.70
2017-11-04T09:21:15.361Z,10.73
2017-11-04T09:22:16.226Z,10.73
2017-11-04T09:23:15.328Z,10.73
2017-11-04T09:24:15.325Z,10.67
2017-11-04T09:25:15.306Z,10.65
2017-11-04T09:26:15.302Z,10.70
2017-11-04T09:27:15.295Z,10.70
2017-11-04T09:28:15.284Z,10.82
2017-11-04T09:29:15.280Z,10.76
2017-11-04T09:30:15.270Z,10.76
2017-11-04T09:31:15.261Z,10.80
2017-11-04T09:32:15.256Z,10.70
2017-11-04T09:33:15.245Z,10.78
2017-11-04T09:34:15.249Z,10.86
2017-11-04T09:35:15.234Z,10.97
2017-11-04T09:36:15.227Z,10.94
2017-11-04T09:37:15.211Z,10.90
2017-11-04T09:38:15.207Z,11.05
2017-11-04T09:39:15.198Z,11.00
2017-11-04T09:40:15.193Z,11.08
2017-11-04T09:41:15.187Z,11.01
2017-11-04T09:42:15.180Z,11.05
2017-11-04T09:43:15.172Z,11.13
2017-11-04T09:44:15.160Z,11.23
2017-11-04T09:45:15.154Z,11.25
2017-11-04T09:46:15.173Z,11.31
2017-11-04T09:47:15.140Z,11.36
2017-11-04T09:48:15.129Z,11.28
2017-11-04T09:49:15.127Z,11.36
2017-11-04T09:50:15.114Z,11.28
2017-11-04T09:51:15.108Z,11.31
2017-11-04T09:52:15.106Z,11.27
2017-11-04T09:53:15.094Z,11.25
2017-11-04T09:54:15.083Z,11.27
2017-11-04T09:55:15.076Z,11.19
2017-11-04T09:56:15.731Z,11.22
2017-11-04T09:57:15.066Z,11.15
2017-11-04T09:58:15.059Z,11.18
2017-11-04T09:59:15.053Z,11.27
2017-11-04T10:00:15.046Z,11.25
2017-11-04T10:01:15.738Z,11.18
2017-11-04T10:02:15.028Z,11.31
2017-11-04T10:03:15.027Z,11.31
2017-11-04T10:04:15.014Z,11.36
2017-11-04T10:05:15.008Z,11.36
2017-11-04T10:06:14.994Z,11.43
2017-11-04T10:07:14.989Z,11.33
2017-11-04T10:08:14.980Z,11.33
2017-11-04T10:09:15.744Z,11.34
2017-11-04T10:10:14.969Z,11.36
2017-11-04T10:11:15.738Z,11.48
2017-11-04T10:12:14.952Z,11.40
2017-11-04T10:13:14.948Z,11.40
2017-11-04T10:14:14.942Z,11.38
2017-11-04T10:15:14.943Z,11.40
2017-11-04T10:16:14.927Z,11.43
2017-11-04T10:17:15.747Z,11.45
2017-11-04T10:18:14.919Z,11.40
2017-11-04T10:19:14.904Z,11.43
2017-11-04T10:20:14.901Z,11.43
2017-11-04T10:21:14.893Z,11.43
2017-11-04T10:22:14.881Z,11.46
2017-11-04T10:23:14.875Z,11.54
2017-11-04T10:24:21.742Z,11.52
2017-11-04T10:25:14.860Z,11.52
2017-11-04T10:26:14.854Z,11.51
2017-11-04T10:27:14.853Z,11.55
2017-11-04T10:28:14.833Z,11.61
2017-11-04T10:29:14.842Z,11.56
2017-11-04T10:30:14.830Z,11.73
2017-11-04T10:31:15.742Z,11.77
2017-11-04T10:32:14.818Z,11.80
2017-11-04T10:33:14.817Z,11.79
2017-11-04T10:34:14.805Z,11.85
2017-11-04T10:35:14.795Z,11.77
2017-11-04T10:36:14.787Z,11.87
2017-11-04T10:37:14.783Z,11.88
2017-11-04T10:38:14.772Z,11.85
2017-11-04T10:39:14.763Z,11.89
2017-11-04T10:40:14.789Z,11.97
2017-11-04T10:41:15.752Z,11.97
2017-11-04T10:42:15.259Z,12.10
2017-11-04T10:43:14.741Z,11.96
2017-11-04T10:44:14.743Z,12.00
2017-11-04T10:45:14.731Z,11.97
2017-11-04T10:46:14.724Z,11.97
2017-11-04T10:47:14.715Z,12.11
2017-11-04T10:48:14.720Z,12.10
2017-11-04T10:49:14.706Z,12.05
2017-11-04T10:50:14.700Z,12.10
2017-11-04T10:51:14.692Z,12.00
2017-11-04T10:52:14.687Z,12.03
2017-11-04T10:53:14.680Z,11.97
2017-11-04T10:54:14.658Z,12.04
2017-11-04T10:55:14.668Z,12.07
2017-11-04T10:56:14.657Z,12.05
2017-11-04T10:57:14.651Z,12.04
2017-11-04T10:58:14.645Z,12.03
2017-11-04T10:59:14.639Z,12.17
2017-11-04T11:00:14.632Z,12.10
2017-11-04T11:01:14.626Z,12.14
2017-11-04T11:02:14.622Z,12.15
2017-11-04T11:03:14.617Z,12.17
2017-11-04T11:04:14.609Z,12.22
2017-11-04T11:05:14.603Z,12.22
2017-11-04T11:06:14.600Z,12.23
2017-11-04T11:07:14.589Z,12.26
2017-11-04T11:08:14.588Z,12.21
2017-11-04T11:09:14.574Z,12.26
2017-11-04T11:10:14.571Z,12.23
2017-11-04T11:11:14.561Z,12.23
2017-11-04T11:12:14.555Z,12.28
2017-11-04T11:13:14.551Z,12.29
2017-11-04T11:14:14.541Z,12.41
2017-11-04T11:15:14.537Z,12.29
2017-11-04T11:16:14.532Z,12.33
2017-11-04T11:17:14.522Z,12.35
2017-11-04T11:18:14.518Z,12.41
2017-11-04T11:19:14.514Z,12.47
2017-11-04T11:20:14.505Z,12.46
2017-11-04T11:21:15.270Z,12.50
2017-11-04T11:22:15.273Z,12.46
2017-11-04T11:23:14.491Z,12.59
2017-11-04T11:24:14.483Z,12.55
2017-11-04T11:25:14.474Z,12.50
2017-11-04T11:26:14.474Z,12.58
2017-11-04T11:27:14.462Z,12.50
2017-11-04T11:28:14.449Z,12.46
2017-11-04T11:29:17.280Z,12.50
2017-11-04T11:30:14.440Z,12.46
2017-11-04T11:31:14.434Z,12.59
2017-11-04T11:32:14.447Z,12.50
2017-11-04T11:33:14.427Z,12.63
2017-11-04T11:34:14.422Z,12.59
2017-11-04T11:35:14.415Z,12.63
2017-11-04T11:36:14.404Z,12.63
2017-11-04T11:37:14.417Z,12.68
2017-11-04T11:38:14.396Z,12.66
2017-11-04T11:39:14.394Z,12.66
2017-11-04T11:40:14.403Z,12.80
2017-11-04T11:41:14.381Z,12.63
2017-11-04T11:42:14.386Z,12.65
2017-11-04T11:43:14.364Z,12.71
2017-11-04T11:44:14.365Z,12.76
2017-11-04T11:45:14.355Z,12.73
2017-11-04T11:46:14.353Z,12.77
2017-11-04T11:47:15.281Z,12.88
2017-11-04T11:48:14.338Z,12.87
2017-11-04T11:49:14.342Z,12.93
2017-11-04T11:50:14.334Z,12.93
2017-11-04T11:51:14.320Z,12.95
2017-11-04T11:52:14.307Z,12.95
2017-11-04T11:53:14.315Z,13.04
2017-11-04T11:54:14.302Z,12.99
2017-11-04T11:55:14.295Z,13.05
2017-11-04T11:56:14.290Z,13.06
2017-11-04T11:57:14.295Z,13.13
2017-11-04T11:58:14.293Z,13.09
2017-11-04T11:59:14.282Z,13.13
2017-11-04T12:00:14.272Z,13.16
2017-11-04T12:01:14.268Z,13.19
2017-11-04T12:02:14.255Z,13.20
2017-11-04T12:03:14.268Z,13.32
2017-11-04T12:04:14.252Z,13.36
2017-11-04T12:05:14.245Z,13.45
2017-11-04T12:06:14.242Z,13.54
2017-11-04T12:07:14.228Z,13.42
2017-11-04T12:08:14.222Z,13.49
2017-11-04T12:09:14.241Z,13.43
2017-11-04T12:10:14.216Z,13.57
2017-11-04T12:11:14.209Z,13.54
2017-11-04T12:12:14.208Z,13.57
2017-11-04T12:13:14.200Z,13.54
2017-11-04T12:14:14.197Z,13.49
2017-11-04T12:15:14.794Z,13.51
2017-11-04T12:16:14.188Z,13.54
2017-11-04T12:17:14.183Z,13.51
2017-11-04T12:18:14.179Z,13.54
2017-11-04T12:19:14.173Z,13.67
2017-11-04T12:20:14.168Z,13.63
2017-11-04T12:21:14.164Z,13.63
2017-11-04T12:22:14.153Z,13.64
2017-11-04T12:23:14.148Z,13.72
2017-11-04T12:24:14.144Z,13.68
2017-11-04T12:25:14.137Z,13.65
2017-11-04T12:26:14.136Z,13.68
2017-11-04T12:27:14.127Z,13.68
2017-11-04T12:28:14.130Z,13.68
2017-11-04T12:29:14.127Z,13.53
2017-11-04T12:30:14.128Z,13.53
2017-11-04T12:31:14.115Z,13.54
2017-11-04T12:32:14.108Z,13.51
2017-11-04T12:33:14.105Z,13.55
2017-11-04T12:34:14.098Z,13.54
2017-11-04T12:35:14.095Z,13.53
2017-11-04T12:36:14.078Z,13.43
2017-11-04T12:37:14.082Z,13.51
2017-11-04T12:38:14.087Z,13.49
2017-11-04T12:39:14.065Z,13.53
2017-11-04T12:40:14.802Z,13.53
2017-11-04T12:41:14.062Z,13.49
2017-11-04T12:42:14.050Z,13.49
2017-11-04T12:43:14.045Z,13.51
2017-11-04T12:44:14.039Z,13.55
2017-11-04T12:45:14.034Z,13.51
2017-11-04T12:46:14.032Z,13.49
2017-11-04T12:47:14.030Z,13.55
2017-11-04T12:48:14.019Z,13.63
2017-11-04T12:49:14.016Z,13.63
2017-11-04T12:50:14.008Z,13.73
2017-11-04T12:51:13.995Z,13.80
2017-11-04T12:52:13.998Z,13.93
2017-11-04T12:53:13.994Z,13.91
2017-11-04T12:54:13.994Z,14.16
2017-11-04T12:55:13.978Z,14.28
2017-11-04T12:56:13.977Z,14.41
2017-11-04T12:57:13.985Z,14.41
2017-11-04T12:58:13.967Z,14.56
2017-11-04T12:59:13.964Z,14.55
2017-11-04T13:00:13.961Z,14.61
2017-11-04T13:01:13.954Z,14.55
2017-11-04T13:02:13.942Z,14.53
2017-11-04T13:03:13.958Z,14.67
2017-11-04T13:04:13.940Z,14.73
2017-11-04T13:05:13.930Z,14.69
2017-11-04T13:06:13.922Z,14.64
2017-11-04T13:07:13.920Z,14.67
2017-11-04T13:08:13.917Z,14.69